Aktualne dane pomiarowe

Uwaga, wersja testowa! Automatyczne pobieranie danych za pomocą narzędzi lub skryptów to umożliwiających jest zabronione.

Dane meteo z obszaru Polski uzyskane na podstawie depesz SYNOP pobieranych co godzinę z NWS. Najedź myszką na symbol przedstawiony w tabeli, aby uzyskać informacje co do jego znaczenia. Prosimy pamiętać, że to testowa wersja strony, która jeszcze nie jest ukończona. Stworzono również jest krótki FAQ dotyczący korzystania z tej podstrony Anomalie temperatury w chwili obecnej odniesione są do okresu referencyjnego 1951-2016. Okres ten będzie później zmieniony na 1981-2010. Kliknij ikonę aby pobrać plik CSV. Kliknij ikonę aby wygenerować mapę synoptyczną dla danego terminu.

Wybierz Datę:    

        

Katowice (12560)

Dane terminowe dla wybranej stacji. Kliknij datę, aby otrzymać dane z tego terminu dla wszystkich stacji.

TemperaturaZachmurzenieWiatrCiśnienieOpadyPogoda
 Data t td wb tx tn tg rh  Nt Nl Cl Cm Ch ws wd g1 g2 wx mslp ppp ch 24h 12h t ww ww w1 w2  
2019-06-22 23:00:00 19.6 12.4 15.1--- 6330.0wx-wx2wx--21018.9 986.2 0.3---------
2019-06-22 22:00:00 20.6 12.3 15.4--- 5950.0wx-wx3wx--31018.8 986.2 0.4---------
2019-06-22 21:00:00 20.9 12.3 15.5--- 5850.0wxwxwxwx4wx--41018.9 986.3 0.4---------
2019-06-22 20:00:00 21.5 12.3 15.8--- 5630.0wxwxwxwx4wx--41018.4 985.9 -0.1---------
2019-06-22 19:00:00 22.8 12.7 16.5--- 5330.0wxwxwxwx4wx--41018.2 985.8 -0.5---------
2019-06-22 18:00:00 23.4 13.6 17.2 25.5 19.7- 5430.0wxwxwxwxwx5wx-951018.2 985.9 -0.5- 0.012------
2019-06-22 17:00:00 23.8 13.6 17.4--- 5330.0wxwxwx4wx--41018.3 986.0 -0.7---------
2019-06-22 16:00:00 23.5 13.7 17.3--- 5430.0wxwxwx5wx--51018.6 986.3 -0.8---------
2019-06-22 15:00:00 25.4 13.3 17.9--- 4730.0wxwxwxwx4wx-941018.5 986.4 -1.5---------
2019-06-22 14:00:00 24.5 14.0 17.9--- 5230.0wxwxwxwx5wx-951018.9 986.7 -1.6---------
2019-06-22 13:00:00 24.5 12.8 17.3--- 4830.0wxwxwxwx4wx-841019.3 987.1 -1.6---------
2019-06-22 12:00:00 23.9 14.0 17.6--- 5430.0wxwxwxwx5wx101051020.2 987.9 -0.8- 0.06------
2019-06-22 11:00:00 23.0 14.6 17.6--- 5930.0wxwxwxwx4wx---1020.7 988.3 -0.1---------
2019-06-22 10:00:00 22.6 14.9 17.6--- 6230.0wxwxwxwx3wx--31021.2 988.7 0.5---------
2019-06-22 09:00:00 21.7 14.8 17.2--- 6520.0wxwxwxwx3wx--31021.3 988.7 0.7---------
2019-06-22 08:00:00 21.4 15.5 17.5--- 6930.0wxwxwx2wx--21021.0 988.4 0.7---------
2019-06-22 07:00:00 20.7 15.9 17.4--- 7430.0wxwxwxwxwx2wx--21020.9 988.2 0.8---------
2019-06-22 06:00:00 19.7 15.8 17.0 21.2 14.7 13 7820.0wxwxwxwxwx3wx--31020.8 988.0 1.0- 0.012----- 8.6
2019-06-22 05:00:00 18.6 15.3 16.3--- 8120.0wxwxwxwxwx2wx--21020.6 987.7 1.3---------
2019-06-22 04:00:00 17.7 16.6 16.9--- 9315.0wx-wxwx2wx--21020.4 987.4 1.4---------
2019-06-22 03:00:00 14.8 13.7 14.0--- 9310.0wx-wxwx0---01020.3 987.0 1.0---wx---
2019-06-22 02:00:00 16.3 15.3 15.6--- 9410.0wxwxwxwx1wx--11019.5 986.4 0.5---wx---
2019-06-22 01:00:00 16.4 15.4 15.7--- 9410.0wx-wx1wx--11019.1 986.0 0.4---wx---
2019-06-22 00:00:00 16.5 15.4 15.7--- 9310.0wx-wx1wx--11019.1 986.0 0.6- 0.06------
2019-06-21 23:00:00 18.2 17.4 17.6--- 9510.0wxwxwxwx1wx--11018.8 985.9 1.0---------
2019-06-21 22:00:00 18.5 17.5 17.8--- 9410.0wxwxwxwx1wx--11018.4 985.6 1.1---------
2019-06-21 21:00:00 18.4 17.2 17.5--- 9310.0wx-wxwx2wx--21018.2 985.4 1.4---------
2019-06-21 20:00:00 19.0 16.6 17.3--- 8620.0wxwxwxwx1wx--11017.7 984.9 1.4---------
2019-06-21 19:00:00 19.9 16.9 17.8--- 8330.0wxwxwxwx1wx--11017.1 984.5 0.9---------
2019-06-21 18:00:00 20.4 16.8 17.9 27.8 19.9- 8030.0wxwxwxwxwx1wx-911016.6 984.0 0.6--12wx-w1w2--
2019-06-21 17:00:00 20.8 17.4 18.4--- 8120.0wxwxwxwxwx2wx---1016.0 983.5 0.3---------
2019-06-21 16:00:00 20.5 15.9 17.4--- 7530.0wxwxwxwxwx1wx--11016.1 983.6 1.1---wx---
2019-06-21 15:00:00 21.2 16.6 18.1--- 7530.0wxwxwxwxwx3wx---1015.9 983.4 1.2---wx-w1w2--
2019-06-21 14:00:00 23.4 15.4 18.2--- 6130.0wxwxwxwx3wx-831015.4 983.2 0.9---wx---
2019-06-21 13:00:00 25.6 15.6 19.1--- 5430.0wxwxwxwx4wx9941014.4 982.5 -0.2---wx-w1--
2019-06-21 12:00:00 25.1 15.7 19.0--- 5620.0wxwxwxwx5wx--51014.2 982.2 -0.8--6wx-w1--
2019-06-21 11:00:00 27.0 14.1 18.9--- 4530.0wxwxwxwxwx3wx---1014.1 982.3 -0.5---------
2019-06-21 10:00:00 26.5 16.1 19.8--- 5330.0wxwxwxwxwx3wx---1014.6 982.7 0.2---------
2019-06-21 09:00:00 25.1 15.1 18.7--- 5430.0wxwxwxwxwx2wx--21015.0 983.0 0.7---------
2019-06-21 08:00:00 24.3 15.5 18.6--- 5830.0wx-wxwx2wx--21014.9 982.8 0.9---------
2019-06-21 07:00:00 22.1 14.5 17.2--- 6230.0wx-wxwx2wx--21014.8 982.5 0.7---------
2019-06-21 06:00:00 21.3 15.2 17.3 22.5 14.9 14 6830.0wx-wxwx2wx--21014.7 982.3 0.8- 0.012----- 4.6
2019-06-21 05:00:00 19.5 14.9 16.4--- 7530.0wx-wxwx3wx--31014.5 981.9 0.9---------
2019-06-21 04:00:00 17.2 15.4 15.9--- 8930.0wxwxwxwxwx1wx--11014.7 981.8 1.2---------
2019-06-21 03:00:00 16.3 14.8 15.2--- 9130.0wxwxwxwx0---01014.5 981.5 1.3---------
2019-06-21 02:00:00 15.6 14.3 14.7--- 9220.0wxwxwxwx1wx--11014.0 981.0 0.9---------
2019-06-21 01:00:00 15.3 13.7 14.2--- 9020.0wx-wx1wx--11013.6 980.6 0.0---------
2019-06-21 00:00:00 16.3 14.5 15.0--- 8920.0wx-wxwx1wx--11013.1 980.2 0.2- 0.06------
1.6 ms

 

Print Friendly, PDF & Email